sensor_id;sensor_type;location;lat;lon;timestamp;P1;P2;P0
62547;PMS7003;48602;45.192;5.722;2022-11-20T00:01:45;4.75;3.50;2.50
62547;PMS7003;48602;45.192;5.722;2022-11-20T00:04:11;8.50;6.75;5.50
62547;PMS7003;48602;45.192;5.722;2022-11-20T00:06:37;11.75;6.50;5.25
62547;PMS7003;48602;45.192;5.722;2022-11-20T00:09:02;6.50;6.25;5.00
62547;PMS7003;48602;45.192;5.722;2022-11-20T00:11:28;6.75;6.75;6.00
62547;PMS7003;48602;45.192;5.722;2022-11-20T00:13:57;10.00;9.75;9.00
62547;PMS7003;48602;45.192;5.722;2022-11-20T00:16:26;6.25;5.50;5.00
62547;PMS7003;48602;45.192;5.722;2022-11-20T00:18:53;8.00;8.00;7.50
62547;PMS7003;48602;45.192;5.722;2022-11-20T00:21:19;3.25;3.25;2.75
62547;PMS7003;48602;45.192;5.722;2022-11-20T00:23:49;13.50;7.25;5.25
62547;PMS7003;48602;45.192;5.722;2022-11-20T00:26:16;8.00;8.00;6.25
62547;PMS7003;48602;45.192;5.722;2022-11-20T00:28:44;9.25;9.25;8.00
62547;PMS7003;48602;45.192;5.722;2022-11-20T00:31:14;7.75;6.50;5.00
62547;PMS7003;48602;45.192;5.722;2022-11-20T00:33:41;8.75;8.75;8.25
62547;PMS7003;48602;45.192;5.722;2022-11-20T00:36:11;8.50;8.50;6.25
62547;PMS7003;48602;45.192;5.722;2022-11-20T00:38:51;8.50;8.00;6.25
62547;PMS7003;48602;45.192;5.722;2022-11-20T00:41:17;7.00;7.00;5.25
62547;PMS7003;48602;45.192;5.722;2022-11-20T00:43:42;5.25;5.25;5.25
62547;PMS7003;48602;45.192;5.722;2022-11-20T00:46:09;8.75;8.75;8.00
62547;PMS7003;48602;45.192;5.722;2022-11-20T00:48:39;11.00;8.00;6.25
62547;PMS7003;48602;45.192;5.722;2022-11-20T00:51:04;7.25;6.75;4.50
62547;PMS7003;48602;45.192;5.722;2022-11-20T00:53:30;10.75;10.75;9.50
62547;PMS7003;48602;45.192;5.722;2022-11-20T00:55:57;7.75;6.50;5.00
62547;PMS7003;48602;45.192;5.722;2022-11-20T00:58:29;3.50;3.00;2.50
62547;PMS7003;48602;45.192;5.722;2022-11-20T01:01:03;5.00;4.25;2.25
62547;PMS7003;48602;45.192;5.722;2022-11-20T01:03:31;5.00;5.00;4.50
62547;PMS7003;48602;45.192;5.722;2022-11-20T01:06:01;4.25;4.25;3.50
62547;PMS7003;48602;45.192;5.722;2022-11-20T01:08:37;7.75;6.25;5.50
62547;PMS7003;48602;45.192;5.722;2022-11-20T01:11:04;7.75;7.25;5.00
62547;PMS7003;48602;45.192;5.722;2022-11-20T01:13:32;9.50;8.00;7.25
62547;PMS7003;48602;45.192;5.722;2022-11-20T01:16:04;8.25;8.25;8.00
62547;PMS7003;48602;45.192;5.722;2022-11-20T01:18:36;4.75;4.75;4.75
62547;PMS7003;48602;45.192;5.722;2022-11-20T01:21:04;6.50;6.25;5.00
62547;PMS7003;48602;45.192;5.722;2022-11-20T01:23:32;8.00;7.25;6.25
62547;PMS7003;48602;45.192;5.722;2022-11-20T01:26:00;9.50;7.00;5.00
62547;PMS7003;48602;45.192;5.722;2022-11-20T01:28:27;5.00;5.00;5.00
62547;PMS7003;48602;45.192;5.722;2022-11-20T01:30:53;6.25;6.25;5.00
62547;PMS7003;48602;45.192;5.722;2022-11-20T01:33:19;5.75;4.50;4.00
62547;PMS7003;48602;45.192;5.722;2022-11-20T01:35:44;5.00;5.00;4.75
62547;PMS7003;48602;45.192;5.722;2022-11-20T01:38:09;5.00;5.00;4.00
62547;PMS7003;48602;45.192;5.722;2022-11-20T01:40:35;3.00;3.00;2.75
62547;PMS7003;48602;45.192;5.722;2022-11-20T01:43:19;4.25;4.00;3.00
62547;PMS7003;48602;45.192;5.722;2022-11-20T01:48:19;3.50;3.00;3.00
62547;PMS7003;48602;45.192;5.722;2022-11-20T01:50:48;3.00;3.00;3.00
62547;PMS7003;48602;45.192;5.722;2022-11-20T01:53:17;4.50;4.00;3.25
62547;PMS7003;48602;45.192;5.722;2022-11-20T01:55:48;4.00;4.00;3.25
62547;PMS7003;48602;45.192;5.722;2022-11-20T01:58:16;4.00;4.00;3.50
62547;PMS7003;48602;45.192;5.722;2022-11-20T02:00:45;5.00;5.00;5.00
62547;PMS7003;48602;45.192;5.722;2022-11-20T02:03:11;4.50;4.00;4.00
62547;PMS7003;48602;45.192;5.722;2022-11-20T02:08:27;4.50;4.00;3.00
62547;PMS7003;48602;45.192;5.722;2022-11-20T02:10:53;7.50;5.50;5.00
62547;PMS7003;48602;45.192;5.722;2022-11-20T02:13:19;7.50;6.25;5.00
62547;PMS7003;48602;45.192;5.722;2022-11-20T02:16:02;9.75;7.00;6.00
62547;PMS7003;48602;45.192;5.722;2022-11-20T02:18:28;7.75;7.00;5.75
62547;PMS7003;48602;45.192;5.722;2022-11-20T02:24:14;10.75;6.50;5.00
62547;PMS7003;48602;45.192;5.722;2022-11-20T02:29:16;8.00;6.25;5.00
62547;PMS7003;48602;45.192;5.722;2022-11-20T02:31:47;9.25;8.75;6.75
62547;PMS7003;48602;45.192;5.722;2022-11-20T02:34:12;5.50;4.75;4.25
62547;PMS7003;48602;45.192;5.722;2022-11-20T02:36:38;7.75;7.75;5.00
62547;PMS7003;48602;45.192;5.722;2022-11-20T02:39:07;8.25;8.25;8.00
62547;PMS7003;48602;45.192;5.722;2022-11-20T02:41:36;8.00;7.00;5.25
62547;PMS7003;48602;45.192;5.722;2022-11-20T02:44:02;8.75;8.25;6.25
62547;PMS7003;48602;45.192;5.722;2022-11-20T02:46:29;9.25;8.25;6.50
62547;PMS7003;48602;45.192;5.722;2022-11-20T02:48:55;11.00;10.00;8.50
62547;PMS7003;48602;45.192;5.722;2022-11-20T02:51:20;9.50;9.50;9.00
62547;PMS7003;48602;45.192;5.722;2022-11-20T02:53:46;10.25;9.25;8.25
62547;PMS7003;48602;45.192;5.722;2022-11-20T02:56:12;10.75;8.00;5.50
62547;PMS7003;48602;45.192;5.722;2022-11-20T02:58:37;10.25;6.75;5.25
62547;PMS7003;48602;45.192;5.722;2022-11-20T03:01:03;7.50;6.25;4.75
62547;PMS7003;48602;45.192;5.722;2022-11-20T03:03:28;10.00;9.00;8.00
62547;PMS7003;48602;45.192;5.722;2022-11-20T03:05:53;5.00;5.00;4.00
62547;PMS7003;48602;45.192;5.722;2022-11-20T03:08:19;5.25;5.25;4.75
62547;PMS7003;48602;45.192;5.722;2022-11-20T03:10:44;4.50;4.25;3.25
62547;PMS7003;48602;45.192;5.722;2022-11-20T03:13:09;7.50;6.50;5.00
62547;PMS7003;48602;45.192;5.722;2022-11-20T03:15:36;8.33;8.33;8.00
62547;PMS7003;48602;45.192;5.722;2022-11-20T03:18:02;8.25;8.25;5.00
62547;PMS7003;48602;45.192;5.722;2022-11-20T03:20:28;7.75;7.25;6.25
62547;PMS7003;48602;45.192;5.722;2022-11-20T03:22:54;7.25;7.25;5.00
62547;PMS7003;48602;45.192;5.722;2022-11-20T03:25:20;5.00;5.00;4.25
62547;PMS7003;48602;45.192;5.722;2022-11-20T03:27:45;5.00;5.00;4.00
62547;PMS7003;48602;45.192;5.722;2022-11-20T03:30:11;9.00;8.00;6.75
62547;PMS7003;48602;45.192;5.722;2022-11-20T03:32:36;10.00;9.33;8.00
62547;PMS7003;48602;45.192;5.722;2022-11-20T03:35:02;9.33;9.00;7.67
62547;PMS7003;48602;45.192;5.722;2022-11-20T03:37:27;11.00;11.00;10.00
62547;PMS7003;48602;45.192;5.722;2022-11-20T03:39:52;11.33;11.33;9.00
62547;PMS7003;48602;45.192;5.722;2022-11-20T03:42:18;8.75;7.75;6.75
62547;PMS7003;48602;45.192;5.722;2022-11-20T03:45:02;10.00;9.33;7.33
62547;PMS7003;48602;45.192;5.722;2022-11-20T03:47:28;7.25;7.00;5.00
62547;PMS7003;48602;45.192;5.722;2022-11-20T03:49:53;5.25;5.25;5.25
62547;PMS7003;48602;45.192;5.722;2022-11-20T03:52:18;8.00;7.00;6.25
62547;PMS7003;48602;45.192;5.722;2022-11-20T03:54:44;8.00;6.67;3.33
62547;PMS7003;48602;45.192;5.722;2022-11-20T03:57:09;7.75;6.25;4.50
62547;PMS7003;48602;45.192;5.722;2022-11-20T03:59:35;8.75;6.00;5.00
62547;PMS7003;48602;45.192;5.722;2022-11-20T04:02:00;7.00;5.25;5.00
62547;PMS7003;48602;45.192;5.722;2022-11-20T04:04:25;9.50;8.75;6.25
62547;PMS7003;48602;45.192;5.722;2022-11-20T04:06:51;10.50;8.50;6.00
62547;PMS7003;48602;45.192;5.722;2022-11-20T04:09:16;8.00;7.50;5.00
62547;PMS7003;48602;45.192;5.722;2022-11-20T04:11:41;4.00;4.00;4.00
62547;PMS7003;48602;45.192;5.722;2022-11-20T04:14:11;7.25;7.25;5.00
62547;PMS7003;48602;45.192;5.722;2022-11-20T04:16:39;8.75;8.50;7.75
62547;PMS7003;48602;45.192;5.722;2022-11-20T04:19:05;9.00;8.00;7.00
62547;PMS7003;48602;45.192;5.722;2022-11-20T04:21:34;6.50;5.00;4.00
62547;PMS7003;48602;45.192;5.722;2022-11-20T04:24:00;9.00;9.00;6.75
62547;PMS7003;48602;45.192;5.722;2022-11-20T04:26:26;6.75;6.25;4.75
62547;PMS7003;48602;45.192;5.722;2022-11-20T04:28:53;5.00;4.25;4.25
62547;PMS7003;48602;45.192;5.722;2022-11-20T04:31:20;7.75;5.50;5.50
62547;PMS7003;48602;45.192;5.722;2022-11-20T04:33:47;8.00;8.00;7.00
62547;PMS7003;48602;45.192;5.722;2022-11-20T04:36:17;8.50;7.75;6.50
62547;PMS7003;48602;45.192;5.722;2022-11-20T04:38:50;4.00;4.00;3.50
62547;PMS7003;48602;45.192;5.722;2022-11-20T04:41:25;7.75;7.00;5.00
62547;PMS7003;48602;45.192;5.722;2022-11-20T04:43:56;8.00;8.00;7.00
62547;PMS7003;48602;45.192;5.722;2022-11-20T04:46:28;8.75;7.00;5.00
62547;PMS7003;48602;45.192;5.722;2022-11-20T04:48:54;9.00;7.25;6.75
62547;PMS7003;48602;45.192;5.722;2022-11-20T04:51:20;8.25;5.50;4.00
62547;PMS7003;48602;45.192;5.722;2022-11-20T04:53:45;9.25;9.25;5.00
62547;PMS7003;48602;45.192;5.722;2022-11-20T04:56:11;5.00;5.00;5.00
62547;PMS7003;48602;45.192;5.722;2022-11-20T04:58:38;8.67;7.67;6.33
62547;PMS7003;48602;45.192;5.722;2022-11-20T05:01:14;6.50;6.50;4.75
62547;PMS7003;48602;45.192;5.722;2022-11-20T05:03:41;7.00;7.00;5.50
62547;PMS7003;48602;45.192;5.722;2022-11-20T05:06:08;4.75;4.75;4.25
62547;PMS7003;48602;45.192;5.722;2022-11-20T05:08:35;8.25;7.25;6.75
62547;PMS7003;48602;45.192;5.722;2022-11-20T05:11:01;6.00;6.00;4.75
62547;PMS7003;48602;45.192;5.722;2022-11-20T05:13:28;8.25;8.25;5.00
62547;PMS7003;48602;45.192;5.722;2022-11-20T05:15:54;9.00;8.00;7.00
62547;PMS7003;48602;45.192;5.722;2022-11-20T05:18:19;10.00;8.00;7.00
62547;PMS7003;48602;45.192;5.722;2022-11-20T05:20:45;9.50;8.50;8.00
62547;PMS7003;48602;45.192;5.722;2022-11-20T05:23:10;7.25;7.25;4.50
62547;PMS7003;48602;45.192;5.722;2022-11-20T05:25:35;6.25;5.00;4.75
62547;PMS7003;48602;45.192;5.722;2022-11-20T05:28:01;7.75;7.75;5.00
62547;PMS7003;48602;45.192;5.722;2022-11-20T05:30:26;8.50;7.50;6.75
62547;PMS7003;48602;45.192;5.722;2022-11-20T05:32:51;8.75;7.25;6.75
62547;PMS7003;48602;45.192;5.722;2022-11-20T05:35:17;8.75;7.25;5.50
62547;PMS7003;48602;45.192;5.722;2022-11-20T05:37:42;8.50;8.50;7.25
62547;PMS7003;48602;45.192;5.722;2022-11-20T05:40:08;4.00;4.00;4.00
62547;PMS7003;48602;45.192;5.722;2022-11-20T05:42:34;9.25;8.00;7.00
62547;PMS7003;48602;45.192;5.722;2022-11-20T05:45:01;7.25;6.00;5.00
62547;PMS7003;48602;45.192;5.722;2022-11-20T05:47:28;9.00;7.75;6.00
62547;PMS7003;48602;45.192;5.722;2022-11-20T05:49:57;8.67;8.33;7.67
62547;PMS7003;48602;45.192;5.722;2022-11-20T05:52:22;7.75;5.00;5.00
62547;PMS7003;48602;45.192;5.722;2022-11-20T05:54:48;7.50;7.50;5.50
62547;PMS7003;48602;45.192;5.722;2022-11-20T05:57:13;7.75;6.50;4.25
62547;PMS7003;48602;45.192;5.722;2022-11-20T05:59:38;10.25;8.00;5.00
62547;PMS7003;48602;45.192;5.722;2022-11-20T06:02:04;9.33;8.00;7.00
62547;PMS7003;48602;45.192;5.722;2022-11-20T06:04:29;8.00;7.00;7.00
62547;PMS7003;48602;45.192;5.722;2022-11-20T06:06:55;9.00;9.00;7.00
62547;PMS7003;48602;45.192;5.722;2022-11-20T06:09:20;8.00;7.67;7.00
62547;PMS7003;48602;45.192;5.722;2022-11-20T06:11:45;5.50;5.50;4.00
62547;PMS7003;48602;45.192;5.722;2022-11-20T06:14:11;6.75;6.75;5.00
62547;PMS7003;48602;45.192;5.722;2022-11-20T06:16:36;4.75;4.75;4.50
62547;PMS7003;48602;45.192;5.722;2022-11-20T06:19:01;9.67;9.67;7.67
62547;PMS7003;48602;45.192;5.722;2022-11-20T06:21:27;6.75;5.00;4.25
62547;PMS7003;48602;45.192;5.722;2022-11-20T06:23:53;7.00;7.00;6.50
62547;PMS7003;48602;45.192;5.722;2022-11-20T06:26:19;8.00;7.50;5.00
62547;PMS7003;48602;45.192;5.722;2022-11-20T06:28:46;6.25;6.25;4.25
62547;PMS7003;48602;45.192;5.722;2022-11-20T06:31:13;11.00;10.00;8.00
62547;PMS7003;48602;45.192;5.722;2022-11-20T06:33:40;10.25;8.25;7.50
62547;PMS7003;48602;45.192;5.722;2022-11-20T06:36:06;10.25;9.25;7.50
62547;PMS7003;48602;45.192;5.722;2022-11-20T06:38:32;8.00;6.50;4.75
62547;PMS7003;48602;45.192;5.722;2022-11-20T06:40:57;5.75;5.75;3.25
62547;PMS7003;48602;45.192;5.722;2022-11-20T06:43:23;9.00;8.50;6.25
62547;PMS7003;48602;45.192;5.722;2022-11-20T06:45:53;9.75;7.50;6.75
62547;PMS7003;48602;45.192;5.722;2022-11-20T06:48:19;10.75;8.25;6.00
62547;PMS7003;48602;45.192;5.722;2022-11-20T06:50:45;12.67;9.33;8.00
62547;PMS7003;48602;45.192;5.722;2022-11-20T06:53:10;10.25;8.75;8.00
62547;PMS7003;48602;45.192;5.722;2022-11-20T06:55:36;10.00;8.33;8.00
62547;PMS7003;48602;45.192;5.722;2022-11-20T06:58:01;7.50;7.50;6.25
62547;PMS7003;48602;45.192;5.722;2022-11-20T07:00:26;8.50;8.50;7.75
62547;PMS7003;48602;45.192;5.722;2022-11-20T07:02:52;8.33;8.00;5.33
62547;PMS7003;48602;45.192;5.722;2022-11-20T07:05:17;12.67;12.33;9.33
62547;PMS7003;48602;45.192;5.722;2022-11-20T07:07:42;3.67;3.00;3.00
62547;PMS7003;48602;45.192;5.722;2022-11-20T07:10:08;9.67;9.67;9.00
62547;PMS7003;48602;45.192;5.722;2022-11-20T07:12:34;14.67;13.00;9.67
62547;PMS7003;48602;45.192;5.722;2022-11-20T07:14:59;14.00;10.25;8.25
62547;PMS7003;48602;45.192;5.722;2022-11-20T07:19:47;12.00;11.67;9.00
62547;PMS7003;48602;45.192;5.722;2022-11-20T07:22:13;10.67;10.67;8.67
62547;PMS7003;48602;45.192;5.722;2022-11-20T07:24:38;11.33;10.00;7.67
62547;PMS7003;48602;45.192;5.722;2022-11-20T07:27:04;11.33;8.67;7.00
62547;PMS7003;48602;45.192;5.722;2022-11-20T07:29:29;10.00;8.33;7.00
62547;PMS7003;48602;45.192;5.722;2022-11-20T07:31:55;6.67;5.33;4.33
62547;PMS7003;48602;45.192;5.722;2022-11-20T07:34:21;10.33;9.00;8.00
62547;PMS7003;48602;45.192;5.722;2022-11-20T07:36:46;12.33;9.00;8.00
62547;PMS7003;48602;45.192;5.722;2022-11-20T07:39:12;8.67;7.67;6.67
62547;PMS7003;48602;45.192;5.722;2022-11-20T07:41:37;11.00;9.33;8.00
62547;PMS7003;48602;45.192;5.722;2022-11-20T07:44:03;9.67;9.00;8.00
62547;PMS7003;48602;45.192;5.722;2022-11-20T07:46:28;14.00;11.33;9.00
62547;PMS7003;48602;45.192;5.722;2022-11-20T07:48:53;10.33;10.00;8.00
62547;PMS7003;48602;45.192;5.722;2022-11-20T07:51:19;12.67;10.67;8.00
62547;PMS7003;48602;45.192;5.722;2022-11-20T07:53:44;14.33;10.33;8.33
62547;PMS7003;48602;45.192;5.722;2022-11-20T07:56:09;10.00;10.00;8.00
62547;PMS7003;48602;45.192;5.722;2022-11-20T07:58:35;11.67;10.00;8.33
62547;PMS7003;48602;45.192;5.722;2022-11-20T08:01:04;11.33;10.67;9.00
62547;PMS7003;48602;45.192;5.722;2022-11-20T08:03:31;13.33;12.33;10.00
62547;PMS7003;48602;45.192;5.722;2022-11-20T08:05:58;13.33;12.33;10.00
62547;PMS7003;48602;45.192;5.722;2022-11-20T08:08:25;15.00;13.67;10.00
62547;PMS7003;48602;45.192;5.722;2022-11-20T08:10:50;14.67;10.67;8.00
62547;PMS7003;48602;45.192;5.722;2022-11-20T08:13:16;12.33;9.00;7.33
62547;PMS7003;48602;45.192;5.722;2022-11-20T08:16:00;13.67;12.00;8.67
62547;PMS7003;48602;45.192;5.722;2022-11-20T08:18:26;8.33;7.67;7.00
62547;PMS7003;48602;45.192;5.722;2022-11-20T08:20:51;10.33;8.00;7.00
62547;PMS7003;48602;45.192;5.722;2022-11-20T08:23:16;11.67;11.00;8.00
62547;PMS7003;48602;45.192;5.722;2022-11-20T08:25:42;11.67;11.00;9.00
62547;PMS7003;48602;45.192;5.722;2022-11-20T08:28:08;15.67;15.67;12.33
62547;PMS7003;48602;45.192;5.722;2022-11-20T08:30:34;12.33;12.00;10.67
62547;PMS7003;48602;45.192;5.722;2022-11-20T08:33:02;11.00;10.67;8.00
62547;PMS7003;48602;45.192;5.722;2022-11-20T08:35:32;11.33;10.67;8.00
62547;PMS7003;48602;45.192;5.722;2022-11-20T08:37:59;13.00;12.00;11.00
62547;PMS7003;48602;45.192;5.722;2022-11-20T08:40:25;12.00;12.00;10.00
62547;PMS7003;48602;45.192;5.722;2022-11-20T08:42:50;11.00;11.00;9.00
62547;PMS7003;48602;45.192;5.722;2022-11-20T08:45:16;7.00;7.00;6.00
62547;PMS7003;48602;45.192;5.722;2022-11-20T08:47:43;10.33;8.00;6.33
62547;PMS7003;48602;45.192;5.722;2022-11-20T08:50:10;8.33;7.67;6.33
62547;PMS7003;48602;45.192;5.722;2022-11-20T08:52:36;10.00;10.00;8.00
62547;PMS7003;48602;45.192;5.722;2022-11-20T08:55:02;10.67;9.67;8.67
62547;PMS7003;48602;45.192;5.722;2022-11-20T08:57:30;12.33;11.33;9.33
62547;PMS7003;48602;45.192;5.722;2022-11-20T08:59:57;10.00;10.00;8.33
62547;PMS7003;48602;45.192;5.722;2022-11-20T09:02:22;11.33;11.00;8.00
62547;PMS7003;48602;45.192;5.722;2022-11-20T09:04:48;10.33;9.33;7.67
62547;PMS7003;48602;45.192;5.722;2022-11-20T09:07:13;10.00;10.00;8.33
62547;PMS7003;48602;45.192;5.722;2022-11-20T09:09:38;12.67;12.00;10.00
62547;PMS7003;48602;45.192;5.722;2022-11-20T09:12:04;13.33;10.67;9.00
62547;PMS7003;48602;45.192;5.722;2022-11-20T09:14:29;11.67;10.33;8.67
62547;PMS7003;48602;45.192;5.722;2022-11-20T09:16:55;14.00;12.67;10.67
62547;PMS7003;48602;45.192;5.722;2022-11-20T09:19:21;12.00;11.00;9.67
62547;PMS7003;48602;45.192;5.722;2022-11-20T09:21:49;10.25;10.00;6.75
62547;PMS7003;48602;45.192;5.722;2022-11-20T09:24:14;13.33;11.00;9.00
62547;PMS7003;48602;45.192;5.722;2022-11-20T09:26:39;15.25;11.75;7.25
62547;PMS7003;48602;45.192;5.722;2022-11-20T09:29:05;12.25;10.00;8.50
62547;PMS7003;48602;45.192;5.722;2022-11-20T09:31:31;11.00;9.00;6.00
62547;PMS7003;48602;45.192;5.722;2022-11-20T09:33:56;9.75;9.75;7.50
62547;PMS7003;48602;45.192;5.722;2022-11-20T09:36:22;6.50;6.00;6.00
62547;PMS7003;48602;45.192;5.722;2022-11-20T09:38:47;7.50;5.50;4.00
62547;PMS7003;48602;45.192;5.722;2022-11-20T09:55:22;5.00;5.00;5.00
62547;PMS7003;48602;45.192;5.722;2022-11-20T09:57:48;5.25;5.25;5.00
62547;PMS7003;48602;45.192;5.722;2022-11-20T10:00:16;5.00;5.00;4.00
62547;PMS7003;48602;45.192;5.722;2022-11-20T10:02:52;6.00;6.00;5.50
62547;PMS7003;48602;45.192;5.722;2022-11-20T10:05:35;6.25;6.25;5.25
62547;PMS7003;48602;45.192;5.722;2022-11-20T10:19:11;4.50;4.00;4.00
62547;PMS7003;48602;45.192;5.722;2022-11-20T10:27:21;2.50;2.50;2.00
62547;PMS7003;48602;45.192;5.722;2022-11-20T10:30:21;6.00;5.00;4.00
62547;PMS7003;48602;45.192;5.722;2022-11-20T10:33:00;5.00;4.00;3.75
62547;PMS7003;48602;45.192;5.722;2022-11-20T10:35:39;4.00;4.00;3.50
62547;PMS7003;48602;45.192;5.722;2022-11-20T10:38:11;3.00;2.75;1.25
62547;PMS7003;48602;45.192;5.722;2022-11-20T10:40:46;6.00;5.00;4.00
62547;PMS7003;48602;45.192;5.722;2022-11-20T10:43:21;7.50;7.00;5.75
62547;PMS7003;48602;45.192;5.722;2022-11-20T10:45:55;4.75;3.00;2.50
62547;PMS7003;48602;45.192;5.722;2022-11-20T10:48:26;3.00;3.00;2.25
62547;PMS7003;48602;45.192;5.722;2022-11-20T11:01:46;4.25;4.25;3.50
62547;PMS7003;48602;45.192;5.722;2022-11-20T11:04:18;3.00;3.00;3.00
62547;PMS7003;48602;45.192;5.722;2022-11-20T11:06:46;3.00;3.00;2.75
62547;PMS7003;48602;45.192;5.722;2022-11-20T11:09:19;5.00;5.00;5.00
62547;PMS7003;48602;45.192;5.722;2022-11-20T11:11:55;3.00;3.00;2.00
62547;PMS7003;48602;45.192;5.722;2022-11-20T11:14:20;7.75;6.00;5.00
62547;PMS7003;48602;45.192;5.722;2022-11-20T11:16:49;6.50;5.00;4.00
62547;PMS7003;48602;45.192;5.722;2022-11-20T11:19:19;6.00;4.75;4.00
62547;PMS7003;48602;45.192;5.722;2022-11-20T11:21:52;7.00;3.25;3.25
62547;PMS7003;48602;45.192;5.722;2022-11-20T11:26:53;5.00;5.00;4.00
62547;PMS7003;48602;45.192;5.722;2022-11-20T11:29:22;4.50;3.50;3.00
62547;PMS7003;48602;45.192;5.722;2022-11-20T11:31:48;6.00;4.00;3.50
62547;PMS7003;48602;45.192;5.722;2022-11-20T11:34:15;4.00;3.75;3.00
62547;PMS7003;48602;45.192;5.722;2022-11-20T11:36:42;6.00;6.00;4.75
62547;PMS7003;48602;45.192;5.722;2022-11-20T11:39:20;4.00;4.00;4.00
62547;PMS7003;48602;45.192;5.722;2022-11-20T11:41:46;5.25;5.25;5.00
62547;PMS7003;48602;45.192;5.722;2022-11-20T11:44:20;5.00;4.00;4.00
62547;PMS7003;48602;45.192;5.722;2022-11-20T11:47:11;4.75;4.75;4.00
62547;PMS7003;48602;45.192;5.722;2022-11-20T11:49:48;5.00;4.25;4.00
62547;PMS7003;48602;45.192;5.722;2022-11-20T11:52:15;6.00;5.00;5.00
62547;PMS7003;48602;45.192;5.722;2022-11-20T11:55:01;4.00;4.00;3.75
62547;PMS7003;48602;45.192;5.722;2022-11-20T12:00:13;4.00;4.00;4.00
62547;PMS7003;48602;45.192;5.722;2022-11-20T12:05:25;4.00;4.00;3.00
62547;PMS7003;48602;45.192;5.722;2022-11-20T12:10:40;4.75;4.75;4.25
62547;PMS7003;48602;45.192;5.722;2022-11-20T12:13:33;4.00;4.00;3.75
62547;PMS7003;48602;45.192;5.722;2022-11-20T12:16:07;3.00;3.00;2.75
62547;PMS7003;48602;45.192;5.722;2022-11-20T12:18:37;3.75;3.75;3.75
62547;PMS7003;48602;45.192;5.722;2022-11-20T12:23:53;3.00;3.00;3.00
62547;PMS7003;48602;45.192;5.722;2022-11-20T12:29:36;4.75;3.50;3.25
62547;PMS7003;48602;45.192;5.722;2022-11-20T12:39:49;4.00;4.00;3.50
62547;PMS7003;48602;45.192;5.722;2022-11-20T12:48:07;4.00;3.75;3.75
62547;PMS7003;48602;45.192;5.722;2022-11-20T13:06:46;5.75;4.75;4.00
62547;PMS7003;48602;45.192;5.722;2022-11-20T13:09:13;3.25;3.25;3.00
62547;PMS7003;48602;45.192;5.722;2022-11-20T13:20:15;3.00;3.00;3.00
62547;PMS7003;48602;45.192;5.722;2022-11-20T13:22:49;5.00;5.00;4.00
62547;PMS7003;48602;45.192;5.722;2022-11-20T13:27:51;6.00;5.00;4.00
62547;PMS7003;48602;45.192;5.722;2022-11-20T13:30:18;3.75;3.00;3.00
62547;PMS7003;48602;45.192;5.722;2022-11-20T13:32:53;3.00;3.00;3.00
62547;PMS7003;48602;45.192;5.722;2022-11-20T13:35:28;6.25;4.75;4.50
62547;PMS7003;48602;45.192;5.722;2022-11-20T13:40:33;6.00;4.75;3.75
62547;PMS7003;48602;45.192;5.722;2022-11-20T13:45:32;5.00;4.00;3.75
62547;PMS7003;48602;45.192;5.722;2022-11-20T13:48:04;4.00;3.25;3.25
62547;PMS7003;48602;45.192;5.722;2022-11-20T13:51:31;4.00;3.40;3.00
62547;PMS7003;48602;45.192;5.722;2022-11-20T13:53:52;6.50;3.75;3.00
62547;PMS7003;48602;45.192;5.722;2022-11-20T14:01:59;3.00;3.00;3.00
62547;PMS7003;48602;45.192;5.722;2022-11-20T14:04:27;4.00;4.00;4.00
62547;PMS7003;48602;45.192;5.722;2022-11-20T14:06:55;2.50;2.50;2.50
62547;PMS7003;48602;45.192;5.722;2022-11-20T14:09:25;2.75;2.75;2.25
62547;PMS7003;48602;45.192;5.722;2022-11-20T14:11:52;2.00;2.00;2.00
62547;PMS7003;48602;45.192;5.722;2022-11-20T14:14:19;3.00;3.00;3.00
62547;PMS7003;48602;45.192;5.722;2022-11-20T14:16:47;4.00;3.00;2.75
62547;PMS7003;48602;45.192;5.722;2022-11-20T14:21:44;3.00;2.40;2.00
62547;PMS7003;48602;45.192;5.722;2022-11-20T14:24:11;3.00;3.00;3.00
62547;PMS7003;48602;45.192;5.722;2022-11-20T14:26:42;3.00;2.00;2.00
62547;PMS7003;48602;45.192;5.722;2022-11-20T14:29:18;2.50;2.50;2.00
62547;PMS7003;48602;45.192;5.722;2022-11-20T14:31:47;5.00;4.00;3.75
62547;PMS7003;48602;45.192;5.722;2022-11-20T14:34:25;4.00;3.00;2.25
62547;PMS7003;48602;45.192;5.722;2022-11-20T14:37:03;3.25;3.00;3.00
62547;PMS7003;48602;45.192;5.722;2022-11-20T14:39:40;3.00;2.00;2.00
62547;PMS7003;48602;45.192;5.722;2022-11-20T14:42:26;3.50;3.50;3.00
62547;PMS7003;48602;45.192;5.722;2022-11-20T14:44:54;3.00;3.00;3.00
62547;PMS7003;48602;45.192;5.722;2022-11-20T14:47:23;3.75;3.75;3.00
62547;PMS7003;48602;45.192;5.722;2022-11-20T14:49:51;3.50;3.50;3.00
62547;PMS7003;48602;45.192;5.722;2022-11-20T14:57:27;4.00;4.00;3.75
62547;PMS7003;48602;45.192;5.722;2022-11-20T15:02:49;6.00;5.00;4.00
62547;PMS7003;48602;45.192;5.722;2022-11-20T15:05:16;2.75;2.75;2.00
62547;PMS7003;48602;45.192;5.722;2022-11-20T15:08:04;4.25;3.00;3.00
62547;PMS7003;48602;45.192;5.722;2022-11-20T15:10:31;4.00;4.00;3.00
62547;PMS7003;48602;45.192;5.722;2022-11-20T15:13:00;7.00;5.00;4.00
62547;PMS7003;48602;45.192;5.722;2022-11-20T15:15:32;3.00;3.00;3.00
62547;PMS7003;48602;45.192;5.722;2022-11-20T15:18:01;4.75;4.75;3.75
62547;PMS7003;48602;45.192;5.722;2022-11-20T15:20:29;3.75;3.75;3.00
62547;PMS7003;48602;45.192;5.722;2022-11-20T15:22:58;5.75;5.00;4.75
62547;PMS7003;48602;45.192;5.722;2022-11-20T15:25:24;5.00;5.00;4.00
62547;PMS7003;48602;45.192;5.722;2022-11-20T15:27:51;5.50;5.25;4.50
62547;PMS7003;48602;45.192;5.722;2022-11-20T15:30:20;5.75;5.00;4.50
62547;PMS7003;48602;45.192;5.722;2022-11-20T15:32:47;4.50;4.50;4.00
62547;PMS7003;48602;45.192;5.722;2022-11-20T15:35:13;6.00;4.00;4.00
62547;PMS7003;48602;45.192;5.722;2022-11-20T15:37:39;7.00;6.25;5.00
62547;PMS7003;48602;45.192;5.722;2022-11-20T15:40:06;8.00;6.25;5.25
62547;PMS7003;48602;45.192;5.722;2022-11-20T15:42:32;7.00;6.00;5.00
62547;PMS7003;48602;45.192;5.722;2022-11-20T15:44:58;6.00;5.00;4.00
62547;PMS7003;48602;45.192;5.722;2022-11-20T15:47:25;5.00;4.50;4.00
62547;PMS7003;48602;45.192;5.722;2022-11-20T15:49:54;4.75;4.75;4.00
62547;PMS7003;48602;45.192;5.722;2022-11-20T15:52:19;5.00;5.00;4.25
62547;PMS7003;48602;45.192;5.722;2022-11-20T15:54:45;5.25;4.75;4.50
62547;PMS7003;48602;45.192;5.722;2022-11-20T15:57:10;5.50;5.50;5.00
62547;PMS7003;48602;45.192;5.722;2022-11-20T15:59:35;5.00;4.75;4.25
62547;PMS7003;48602;45.192;5.722;2022-11-20T16:02:14;7.50;7.50;6.50
62547;PMS7003;48602;45.192;5.722;2022-11-20T16:04:40;8.75;8.75;7.75
62547;PMS7003;48602;45.192;5.722;2022-11-20T16:07:06;6.00;4.75;4.50
62547;PMS7003;48602;45.192;5.722;2022-11-20T16:09:32;10.00;8.00;7.00
62547;PMS7003;48602;45.192;5.722;2022-11-20T16:11:57;7.00;7.00;7.00
62547;PMS7003;48602;45.192;5.722;2022-11-20T16:14:24;10.00;7.50;6.00
62547;PMS7003;48602;45.192;5.722;2022-11-20T16:17:23;11.50;9.25;7.25
62547;PMS7003;48602;45.192;5.722;2022-11-20T16:20:09;12.25;9.75;8.25
62547;PMS7003;48602;45.192;5.722;2022-11-20T16:22:36;10.00;9.50;7.25
62547;PMS7003;48602;45.192;5.722;2022-11-20T16:25:01;11.75;10.75;9.00
62547;PMS7003;48602;45.192;5.722;2022-11-20T16:27:27;11.00;8.75;8.00
62547;PMS7003;48602;45.192;5.722;2022-11-20T16:29:52;7.75;7.75;7.00
62547;PMS7003;48602;45.192;5.722;2022-11-20T16:32:18;8.00;6.50;5.75
62547;PMS7003;48602;45.192;5.722;2022-11-20T16:34:43;6.00;5.50;5.00
62547;PMS7003;48602;45.192;5.722;2022-11-20T16:37:08;11.50;9.00;7.75